sensor_id;sensor_type;location;lat;lon;timestamp;temperature;humidity
69715;HTU21D;56981;53.532;49.398;2023-04-07T00:01:11;4.07;61.76
69715;HTU21D;56981;53.532;49.398;2023-04-07T00:03:37;4.06;61.39
69715;HTU21D;56981;53.532;49.398;2023-04-07T00:06:05;4.01;61.82
69715;HTU21D;56981;53.532;49.398;2023-04-07T00:08:31;3.98;62.02
69715;HTU21D;56981;53.532;49.398;2023-04-07T00:10:58;3.94;62.20
69715;HTU21D;56981;53.532;49.398;2023-04-07T00:13:24;3.91;62.37
69715;HTU21D;56981;53.532;49.398;2023-04-07T00:15:51;3.88;62.32
69715;HTU21D;56981;53.532;49.398;2023-04-07T00:18:17;3.84;62.24
69715;HTU21D;56981;53.532;49.398;2023-04-07T00:20:43;3.76;62.60
69715;HTU21D;56981;53.532;49.398;2023-04-07T00:23:09;3.72;62.69
69715;HTU21D;56981;53.532;49.398;2023-04-07T00:25:35;3.67;62.99
69715;HTU21D;56981;53.532;49.398;2023-04-07T00:28:01;3.64;62.82
69715;HTU21D;56981;53.532;49.398;2023-04-07T00:30:27;3.58;62.98
69715;HTU21D;56981;53.532;49.398;2023-04-07T00:32:53;3.56;62.98
69715;HTU21D;56981;53.532;49.398;2023-04-07T00:35:20;3.57;63.24
69715;HTU21D;56981;53.532;49.398;2023-04-07T00:37:46;3.53;63.21
69715;HTU21D;56981;53.532;49.398;2023-04-07T00:40:12;3.47;63.39
69715;HTU21D;56981;53.532;49.398;2023-04-07T00:42:38;3.48;63.19
69715;HTU21D;56981;53.532;49.398;2023-04-07T00:45:05;3.43;63.31
69715;HTU21D;56981;53.532;49.398;2023-04-07T00:47:31;3.41;63.48
69715;HTU21D;56981;53.532;49.398;2023-04-07T00:49:57;3.36;63.15
69715;HTU21D;56981;53.532;49.398;2023-04-07T00:52:23;3.34;63.12
69715;HTU21D;56981;53.532;49.398;2023-04-07T00:54:54;3.34;63.41
69715;HTU21D;56981;53.532;49.398;2023-04-07T00:57:21;3.31;63.60
69715;HTU21D;56981;53.532;49.398;2023-04-07T00:59:53;3.28;63.43
69715;HTU21D;56981;53.532;49.398;2023-04-07T01:02:36;3.24;63.58
69715;HTU21D;56981;53.532;49.398;2023-04-07T01:05:12;3.17;63.74
69715;HTU21D;56981;53.532;49.398;2023-04-07T01:07:54;3.16;63.76
69715;HTU21D;56981;53.532;49.398;2023-04-07T01:10:55;3.09;63.83
69715;HTU21D;56981;53.532;49.398;2023-04-07T01:13:30;3.05;63.46
69715;HTU21D;56981;53.532;49.398;2023-04-07T01:15:59;3.02;63.40
69715;HTU21D;56981;53.532;49.398;2023-04-07T01:18:30;2.99;63.52
69715;HTU21D;56981;53.532;49.398;2023-04-07T01:21:02;2.95;63.50
69715;HTU21D;56981;53.532;49.398;2023-04-07T01:24:00;2.89;64.13
69715;HTU21D;56981;53.532;49.398;2023-04-07T01:26:30;2.86;63.95
69715;HTU21D;56981;53.532;49.398;2023-04-07T01:29:03;2.86;63.78
69715;HTU21D;56981;53.532;49.398;2023-04-07T01:31:31;2.83;63.90
69715;HTU21D;56981;53.532;49.398;2023-04-07T01:33:59;2.80;63.73
69715;HTU21D;56981;53.532;49.398;2023-04-07T01:36:28;2.80;63.85
69715;HTU21D;56981;53.532;49.398;2023-04-07T01:38:57;2.76;63.83
69715;HTU21D;56981;53.532;49.398;2023-04-07T01:41:25;2.72;64.16
69715;HTU21D;56981;53.532;49.398;2023-04-07T01:43:52;2.71;64.11
69715;HTU21D;56981;53.532;49.398;2023-04-07T01:46:19;2.69;64.00
69715;HTU21D;56981;53.532;49.398;2023-04-07T01:48:46;2.66;64.11
69715;HTU21D;56981;53.532;49.398;2023-04-07T01:51:13;2.65;64.45
69715;HTU21D;56981;53.532;49.398;2023-04-07T01:53:44;2.60;64.53
69715;HTU21D;56981;53.532;49.398;2023-04-07T01:56:11;2.62;64.53
69715;HTU21D;56981;53.532;49.398;2023-04-07T01:58:37;2.64;64.07
69715;HTU21D;56981;53.532;49.398;2023-04-07T02:01:03;2.61;64.40
69715;HTU21D;56981;53.532;49.398;2023-04-07T02:06:12;2.62;64.30
69715;HTU21D;56981;53.532;49.398;2023-04-07T02:08:46;2.66;64.09
69715;HTU21D;56981;53.532;49.398;2023-04-07T02:11:17;2.70;64.12
69715;HTU21D;56981;53.532;49.398;2023-04-07T02:13:44;2.74;63.76
69715;HTU21D;56981;53.532;49.398;2023-04-07T02:16:11;2.78;63.71
69715;HTU21D;56981;53.532;49.398;2023-04-07T02:18:37;2.86;62.94
69715;HTU21D;56981;53.532;49.398;2023-04-07T02:21:04;2.99;62.47
69715;HTU21D;56981;53.532;49.398;2023-04-07T02:23:36;3.27;61.79
69715;HTU21D;56981;53.532;49.398;2023-04-07T02:26:02;4.01;59.28
69715;HTU21D;56981;53.532;49.398;2023-04-07T02:28:28;4.83;56.64
69715;HTU21D;56981;53.532;49.398;2023-04-07T02:30:54;5.48;54.30
69715;HTU21D;56981;53.532;49.398;2023-04-07T02:33:20;6.00;52.41
69715;HTU21D;56981;53.532;49.398;2023-04-07T02:35:46;6.66;50.42
69715;HTU21D;56981;53.532;49.398;2023-04-07T02:38:12;7.19;48.61
69715;HTU21D;56981;53.532;49.398;2023-04-07T02:40:38;7.25;48.03
69715;HTU21D;56981;53.532;49.398;2023-04-07T02:43:06;7.68;47.00
69715;HTU21D;56981;53.532;49.398;2023-04-07T02:45:32;7.94;46.09
69715;HTU21D;56981;53.532;49.398;2023-04-07T02:47:58;8.16;45.50
69715;HTU21D;56981;53.532;49.398;2023-04-07T02:50:24;8.26;45.61
69715;HTU21D;56981;53.532;49.398;2023-04-07T02:52:50;8.61;44.14
69715;HTU21D;56981;53.532;49.398;2023-04-07T02:55:17;8.64;44.00
69715;HTU21D;56981;53.532;49.398;2023-04-07T02:57:43;8.81;43.48
69715;HTU21D;56981;53.532;49.398;2023-04-07T03:00:09;9.41;42.16
69715;HTU21D;56981;53.532;49.398;2023-04-07T03:02:36;9.54;41.65
69715;HTU21D;56981;53.532;49.398;2023-04-07T03:05:02;9.64;41.31
69715;HTU21D;56981;53.532;49.398;2023-04-07T03:07:29;9.78;41.09
69715;HTU21D;56981;53.532;49.398;2023-04-07T03:09:56;10.52;39.38
69715;HTU21D;56981;53.532;49.398;2023-04-07T03:12:22;10.74;39.06
69715;HTU21D;56981;53.532;49.398;2023-04-07T03:14:48;10.89;38.49
69715;HTU21D;56981;53.532;49.398;2023-04-07T03:17:14;11.18;37.72
69715;HTU21D;56981;53.532;49.398;2023-04-07T03:19:41;11.17;37.69
69715;HTU21D;56981;53.532;49.398;2023-04-07T03:22:07;11.74;36.57
69715;HTU21D;56981;53.532;49.398;2023-04-07T03:24:33;12.50;34.74
69715;HTU21D;56981;53.532;49.398;2023-04-07T03:26:59;12.89;33.73
69715;HTU21D;56981;53.532;49.398;2023-04-07T03:29:26;12.66;34.67
69715;HTU21D;56981;53.532;49.398;2023-04-07T03:31:52;12.84;33.92
69715;HTU21D;56981;53.532;49.398;2023-04-07T03:34:18;12.94;33.70
69715;HTU21D;56981;53.532;49.398;2023-04-07T03:36:45;13.46;32.41
69715;HTU21D;56981;53.532;49.398;2023-04-07T03:39:11;13.31;32.35
69715;HTU21D;56981;53.532;49.398;2023-04-07T03:41:37;13.16;32.88
69715;HTU21D;56981;53.532;49.398;2023-04-07T03:44:03;13.29;32.39
69715;HTU21D;56981;53.532;49.398;2023-04-07T03:46:30;13.30;32.66
69715;HTU21D;56981;53.532;49.398;2023-04-07T03:48:56;14.62;30.39
69715;HTU21D;56981;53.532;49.398;2023-04-07T03:51:22;14.77;29.59
69715;HTU21D;56981;53.532;49.398;2023-04-07T03:53:48;14.13;31.13
69715;HTU21D;56981;53.532;49.398;2023-04-07T03:56:14;14.27;30.42
69715;HTU21D;56981;53.532;49.398;2023-04-07T03:58:40;14.00;31.35
69715;HTU21D;56981;53.532;49.398;2023-04-07T04:01:07;14.94;29.42
69715;HTU21D;56981;53.532;49.398;2023-04-07T04:03:34;14.53;29.81
69715;HTU21D;56981;53.532;49.398;2023-04-07T04:06:00;14.71;29.77
69715;HTU21D;56981;53.532;49.398;2023-04-07T04:08:26;15.04;28.79
69715;HTU21D;56981;53.532;49.398;2023-04-07T04:10:52;14.94;29.13
69715;HTU21D;56981;53.532;49.398;2023-04-07T04:13:18;15.38;27.94
69715;HTU21D;56981;53.532;49.398;2023-04-07T04:15:44;15.23;28.33
69715;HTU21D;56981;53.532;49.398;2023-04-07T04:18:10;14.83;29.43
69715;HTU21D;56981;53.532;49.398;2023-04-07T04:20:36;15.03;29.09
69715;HTU21D;56981;53.532;49.398;2023-04-07T04:23:02;14.91;28.71
69715;HTU21D;56981;53.532;49.398;2023-04-07T04:25:28;15.13;28.64
69715;HTU21D;56981;53.532;49.398;2023-04-07T04:27:54;14.47;29.90
69715;HTU21D;56981;53.532;49.398;2023-04-07T04:30:21;14.35;30.29
69715;HTU21D;56981;53.532;49.398;2023-04-07T04:32:47;14.19;30.67
69715;HTU21D;56981;53.532;49.398;2023-04-07T04:35:13;14.73;29.94
69715;HTU21D;56981;53.532;49.398;2023-04-07T04:37:39;15.12;29.24
69715;HTU21D;56981;53.532;49.398;2023-04-07T04:40:05;14.70;29.86
69715;HTU21D;56981;53.532;49.398;2023-04-07T04:42:33;14.54;29.94
69715;HTU21D;56981;53.532;49.398;2023-04-07T04:45:02;14.86;29.61
69715;HTU21D;56981;53.532;49.398;2023-04-07T04:47:28;15.62;28.21
69715;HTU21D;56981;53.532;49.398;2023-04-07T04:49:55;16.19;27.55
69715;HTU21D;56981;53.532;49.398;2023-04-07T04:52:21;16.24;27.36
69715;HTU21D;56981;53.532;49.398;2023-04-07T04:54:47;16.54;27.19
69715;HTU21D;56981;53.532;49.398;2023-04-07T04:57:13;16.10;27.74
69715;HTU21D;56981;53.532;49.398;2023-04-07T04:59:39;16.37;27.41
69715;HTU21D;56981;53.532;49.398;2023-04-07T05:02:05;15.90;28.05
69715;HTU21D;56981;53.532;49.398;2023-04-07T05:04:31;15.67;28.62
69715;HTU21D;56981;53.532;49.398;2023-04-07T05:06:57;16.37;27.69
69715;HTU21D;56981;53.532;49.398;2023-04-07T05:09:26;16.06;28.16
69715;HTU21D;56981;53.532;49.398;2023-04-07T05:11:52;15.23;29.65
69715;HTU21D;56981;53.532;49.398;2023-04-07T05:14:18;15.21;29.93
69715;HTU21D;56981;53.532;49.398;2023-04-07T05:16:44;15.16;30.04
69715;HTU21D;56981;53.532;49.398;2023-04-07T05:19:10;15.00;30.70
69715;HTU21D;56981;53.532;49.398;2023-04-07T05:21:37;15.44;29.82
69715;HTU21D;56981;53.532;49.398;2023-04-07T05:24:06;15.33;30.00
69715;HTU21D;56981;53.532;49.398;2023-04-07T05:26:32;15.52;29.75
69715;HTU21D;56981;53.532;49.398;2023-04-07T05:29:02;15.55;29.42
69715;HTU21D;56981;53.532;49.398;2023-04-07T05:31:28;15.77;29.16
69715;HTU21D;56981;53.532;49.398;2023-04-07T05:33:54;15.82;29.37
69715;HTU21D;56981;53.532;49.398;2023-04-07T05:36:20;16.28;28.73
69715;HTU21D;56981;53.532;49.398;2023-04-07T05:38:46;16.11;28.86
69715;HTU21D;56981;53.532;49.398;2023-04-07T05:41:12;15.55;29.87
69715;HTU21D;56981;53.532;49.398;2023-04-07T05:43:38;15.82;29.68
69715;HTU21D;56981;53.532;49.398;2023-04-07T05:46:04;15.83;29.56
69715;HTU21D;56981;53.532;49.398;2023-04-07T05:48:30;16.06;28.87
69715;HTU21D;56981;53.532;49.398;2023-04-07T05:51:02;16.06;29.13
69715;HTU21D;56981;53.532;49.398;2023-04-07T05:53:28;16.30;28.70
69715;HTU21D;56981;53.532;49.398;2023-04-07T05:55:55;16.41;28.74
69715;HTU21D;56981;53.532;49.398;2023-04-07T05:58:21;16.34;28.67
69715;HTU21D;56981;53.532;49.398;2023-04-07T06:00:47;16.25;28.90
69715;HTU21D;56981;53.532;49.398;2023-04-07T06:03:13;15.88;29.56
69715;HTU21D;56981;53.532;49.398;2023-04-07T06:05:39;15.77;29.87
69715;HTU21D;56981;53.532;49.398;2023-04-07T06:08:10;15.91;29.96
69715;HTU21D;56981;53.532;49.398;2023-04-07T06:10:36;16.17;28.86
69715;HTU21D;56981;53.532;49.398;2023-04-07T06:13:02;16.01;29.34
69715;HTU21D;56981;53.532;49.398;2023-04-07T06:15:28;15.41;30.81
69715;HTU21D;56981;53.532;49.398;2023-04-07T06:17:54;15.36;30.99
69715;HTU21D;56981;53.532;49.398;2023-04-07T06:20:20;15.28;31.37
69715;HTU21D;56981;53.532;49.398;2023-04-07T06:22:48;15.67;30.49
69715;HTU21D;56981;53.532;49.398;2023-04-07T06:25:13;16.06;30.10
69715;HTU21D;56981;53.532;49.398;2023-04-07T06:27:39;16.33;29.42
69715;HTU21D;56981;53.532;49.398;2023-04-07T06:30:06;16.24;29.89
69715;HTU21D;56981;53.532;49.398;2023-04-07T06:32:32;16.06;30.17
69715;HTU21D;56981;53.532;49.398;2023-04-07T06:34:58;16.95;29.06
69715;HTU21D;56981;53.532;49.398;2023-04-07T06:37:24;16.79;29.28
69715;HTU21D;56981;53.532;49.398;2023-04-07T06:39:51;16.79;29.06
69715;HTU21D;56981;53.532;49.398;2023-04-07T06:42:19;16.89;28.37
69715;HTU21D;56981;53.532;49.398;2023-04-07T06:44:45;16.50;29.48
69715;HTU21D;56981;53.532;49.398;2023-04-07T06:47:11;16.45;29.84
69715;HTU21D;56981;53.532;49.398;2023-04-07T06:49:37;16.18;30.16
69715;HTU21D;56981;53.532;49.398;2023-04-07T06:52:04;16.18;30.37
69715;HTU21D;56981;53.532;49.398;2023-04-07T06:54:33;16.59;29.76
69715;HTU21D;56981;53.532;49.398;2023-04-07T06:57:02;16.59;30.12
69715;HTU21D;56981;53.532;49.398;2023-04-07T06:59:28;16.21;30.51
69715;HTU21D;56981;53.532;49.398;2023-04-07T07:01:54;16.00;31.05
69715;HTU21D;56981;53.532;49.398;2023-04-07T07:04:20;15.71;31.20
69715;HTU21D;56981;53.532;49.398;2023-04-07T07:06:46;15.55;32.14
69715;HTU21D;56981;53.532;49.398;2023-04-07T07:09:12;15.72;31.62
69715;HTU21D;56981;53.532;49.398;2023-04-07T07:11:38;15.62;31.68
69715;HTU21D;56981;53.532;49.398;2023-04-07T07:14:05;15.08;32.97
69715;HTU21D;56981;53.532;49.398;2023-04-07T07:16:31;15.39;32.31
69715;HTU21D;56981;53.532;49.398;2023-04-07T07:18:57;15.12;33.18
69715;HTU21D;56981;53.532;49.398;2023-04-07T07:21:23;14.82;34.07
69715;HTU21D;56981;53.532;49.398;2023-04-07T07:23:49;14.23;35.19
69715;HTU21D;56981;53.532;49.398;2023-04-07T07:26:16;14.13;35.91
69715;HTU21D;56981;53.532;49.398;2023-04-07T07:28:42;13.71;36.08
69715;HTU21D;56981;53.532;49.398;2023-04-07T07:31:12;13.78;36.69
69715;HTU21D;56981;53.532;49.398;2023-04-07T07:33:40;13.61;37.11
69715;HTU21D;56981;53.532;49.398;2023-04-07T07:36:08;13.86;36.66
69715;HTU21D;56981;53.532;49.398;2023-04-07T07:38:35;13.84;37.08
69715;HTU21D;56981;53.532;49.398;2023-04-07T07:41:01;13.90;36.63
69715;HTU21D;56981;53.532;49.398;2023-04-07T07:43:28;13.45;37.66
69715;HTU21D;56981;53.532;49.398;2023-04-07T07:45:54;13.65;37.10
69715;HTU21D;56981;53.532;49.398;2023-04-07T07:48:20;13.41;37.69
69715;HTU21D;56981;53.532;49.398;2023-04-07T07:50:46;13.40;38.41
69715;HTU21D;56981;53.532;49.398;2023-04-07T07:53:13;13.36;38.20
69715;HTU21D;56981;53.532;49.398;2023-04-07T07:55:40;13.74;37.94
69715;HTU21D;56981;53.532;49.398;2023-04-07T07:58:07;13.80;37.37
69715;HTU21D;56981;53.532;49.398;2023-04-07T08:00:33;14.06;36.92
69715;HTU21D;56981;53.532;49.398;2023-04-07T08:02:59;13.80;37.75
69715;HTU21D;56981;53.532;49.398;2023-04-07T08:05:25;13.97;37.40
69715;HTU21D;56981;53.532;49.398;2023-04-07T08:07:51;14.21;36.95
69715;HTU21D;56981;53.532;49.398;2023-04-07T08:10:18;14.23;37.30
69715;HTU21D;56981;53.532;49.398;2023-04-07T08:12:45;14.40;36.46
69715;HTU21D;56981;53.532;49.398;2023-04-07T08:15:11;14.29;37.27
69715;HTU21D;56981;53.532;49.398;2023-04-07T08:17:37;14.14;37.29
69715;HTU21D;56981;53.532;49.398;2023-04-07T08:20:04;13.48;38.82
69715;HTU21D;56981;53.532;49.398;2023-04-07T08:22:34;13.49;38.77
69715;HTU21D;56981;53.532;49.398;2023-04-07T08:25:00;13.80;38.49
69715;HTU21D;56981;53.532;49.398;2023-04-07T08:27:26;13.88;38.74
69715;HTU21D;56981;53.532;49.398;2023-04-07T08:30:00;13.88;38.39
69715;HTU21D;56981;53.532;49.398;2023-04-07T08:32:36;13.62;39.10
69715;HTU21D;56981;53.532;49.398;2023-04-07T08:35:03;13.86;38.92
69715;HTU21D;56981;53.532;49.398;2023-04-07T08:37:30;13.76;39.60
69715;HTU21D;56981;53.532;49.398;2023-04-07T08:39:56;13.24;41.00
69715;HTU21D;56981;53.532;49.398;2023-04-07T08:42:29;13.15;41.42
69715;HTU21D;56981;53.532;49.398;2023-04-07T08:44:57;13.43;40.63
69715;HTU21D;56981;53.532;49.398;2023-04-07T08:47:27;13.46;40.32
69715;HTU21D;56981;53.532;49.398;2023-04-07T08:49:56;13.46;40.49
69715;HTU21D;56981;53.532;49.398;2023-04-07T08:52:32;13.12;41.71
69715;HTU21D;56981;53.532;49.398;2023-04-07T08:55:00;13.34;40.89
69715;HTU21D;56981;53.532;49.398;2023-04-07T08:57:32;13.20;41.11
69715;HTU21D;56981;53.532;49.398;2023-04-07T08:59:59;13.00;41.55
69715;HTU21D;56981;53.532;49.398;2023-04-07T09:02:35;13.05;41.58
69715;HTU21D;56981;53.532;49.398;2023-04-07T09:05:03;13.07;41.93
69715;HTU21D;56981;53.532;49.398;2023-04-07T09:07:31;13.35;41.26
69715;HTU21D;56981;53.532;49.398;2023-04-07T09:09:58;13.03;41.70
69715;HTU21D;56981;53.532;49.398;2023-04-07T09:12:26;12.87;42.77
69715;HTU21D;56981;53.532;49.398;2023-04-07T09:14:52;12.77;42.52
69715;HTU21D;56981;53.532;49.398;2023-04-07T09:17:19;12.97;42.78
69715;HTU21D;56981;53.532;49.398;2023-04-07T09:19:48;13.22;41.55
69715;HTU21D;56981;53.532;49.398;2023-04-07T09:22:39;13.44;41.04
69715;HTU21D;56981;53.532;49.398;2023-04-07T09:25:20;13.62;40.88
69715;HTU21D;56981;53.532;49.398;2023-04-07T09:28:00;13.51;40.65
69715;HTU21D;56981;53.532;49.398;2023-04-07T09:30:28;13.49;40.94
69715;HTU21D;56981;53.532;49.398;2023-04-07T09:32:55;13.20;42.11
69715;HTU21D;56981;53.532;49.398;2023-04-07T09:35:21;13.55;41.31
69715;HTU21D;56981;53.532;49.398;2023-04-07T09:38:08;13.81;40.85
69715;HTU21D;56981;53.532;49.398;2023-04-07T09:40:35;13.52;40.52
69715;HTU21D;56981;53.532;49.398;2023-04-07T09:43:03;13.71;41.09
69715;HTU21D;56981;53.532;49.398;2023-04-07T09:45:30;13.98;40.83
69715;HTU21D;56981;53.532;49.398;2023-04-07T09:48:05;13.97;40.08
69715;HTU21D;56981;53.532;49.398;2023-04-07T09:50:33;13.80;40.47
69715;HTU21D;56981;53.532;49.398;2023-04-07T09:53:02;13.64;40.78
69715;HTU21D;56981;53.532;49.398;2023-04-07T09:55:30;13.51;41.33
69715;HTU21D;56981;53.532;49.398;2023-04-07T09:57:56;13.41;41.50
69715;HTU21D;56981;53.532;49.398;2023-04-07T10:00:23;13.27;41.40
69715;HTU21D;56981;53.532;49.398;2023-04-07T10:02:49;13.32;41.96
69715;HTU21D;56981;53.532;49.398;2023-04-07T10:05:17;13.37;41.55
69715;HTU21D;56981;53.532;49.398;2023-04-07T10:07:46;13.55;41.20
69715;HTU21D;56981;53.532;49.398;2023-04-07T10:10:12;13.62;41.08
69715;HTU21D;56981;53.532;49.398;2023-04-07T10:12:39;13.79;40.98
69715;HTU21D;56981;53.532;49.398;2023-04-07T10:15:06;13.86;40.15
69715;HTU21D;56981;53.532;49.398;2023-04-07T10:17:35;13.91;40.82
69715;HTU21D;56981;53.532;49.398;2023-04-07T10:20:03;13.73;40.70
69715;HTU21D;56981;53.532;49.398;2023-04-07T10:22:32;13.77;40.66
69715;HTU21D;56981;53.532;49.398;2023-04-07T10:25:11;13.70;40.63
69715;HTU21D;56981;53.532;49.398;2023-04-07T10:27:58;13.67;40.88
69715;HTU21D;56981;53.532;49.398;2023-04-07T10:30:30;13.80;40.77
69715;HTU21D;56981;53.532;49.398;2023-04-07T10:32:57;13.90;40.71
69715;HTU21D;56981;53.532;49.398;2023-04-07T10:35:23;13.88;40.49
69715;HTU21D;56981;53.532;49.398;2023-04-07T10:38:11;13.91;40.70
69715;HTU21D;56981;53.532;49.398;2023-04-07T10:40:39;14.09;40.35
69715;HTU21D;56981;53.532;49.398;2023-04-07T10:43:09;14.05;39.69
69715;HTU21D;56981;53.532;49.398;2023-04-07T10:48:20;13.91;40.55
69715;HTU21D;56981;53.532;49.398;2023-04-07T10:53:32;13.79;40.04
69715;HTU21D;56981;53.532;49.398;2023-04-07T10:55:59;13.64;40.71
69715;HTU21D;56981;53.532;49.398;2023-04-07T10:58:29;13.69;40.68
69715;HTU21D;56981;53.532;49.398;2023-04-07T11:03:26;14.00;39.77
69715;HTU21D;56981;53.532;49.398;2023-04-07T11:06:05;14.07;39.11
69715;HTU21D;56981;53.532;49.398;2023-04-07T11:10:59;14.00;39.59
69715;HTU21D;56981;53.532;49.398;2023-04-07T11:13:26;13.93;39.94
69715;HTU21D;56981;53.532;49.398;2023-04-07T11:15:52;13.85;40.12
69715;HTU21D;56981;53.532;49.398;2023-04-07T11:18:20;13.85;39.63
69715;HTU21D;56981;53.532;49.398;2023-04-07T11:20:57;13.76;39.83
69715;HTU21D;56981;53.532;49.398;2023-04-07T11:23:24;13.88;39.93
69715;HTU21D;56981;53.532;49.398;2023-04-07T11:26:02;14.00;39.27
69715;HTU21D;56981;53.532;49.398;2023-04-07T11:28:28;14.04;39.41
69715;HTU21D;56981;53.532;49.398;2023-04-07T11:30:55;14.18;39.12
69715;HTU21D;56981;53.532;49.398;2023-04-07T11:33:27;14.20;39.62
69715;HTU21D;56981;53.532;49.398;2023-04-07T11:38:24;14.05;38.36
69715;HTU21D;56981;53.532;49.398;2023-04-07T11:40:51;14.08;38.91
69715;HTU21D;56981;53.532;49.398;2023-04-07T11:43:22;14.23;38.69
69715;HTU21D;56981;53.532;49.398;2023-04-07T11:46:13;14.40;37.75
69715;HTU21D;56981;53.532;49.398;2023-04-07T11:48:41;14.28;38.59
69715;HTU21D;56981;53.532;49.398;2023-04-07T11:51:16;14.07;39.01
69715;HTU21D;56981;53.532;49.398;2023-04-07T11:53:43;13.83;39.38
69715;HTU21D;56981;53.532;49.398;2023-04-07T11:56:12;13.77;39.84
69715;HTU21D;56981;53.532;49.398;2023-04-07T11:58:49;13.80;39.60
69715;HTU21D;56981;53.532;49.398;2023-04-07T12:01:15;13.75;39.23
69715;HTU21D;56981;53.532;49.398;2023-04-07T12:04:01;13.68;39.41
69715;HTU21D;56981;53.532;49.398;2023-04-07T12:06:29;13.60;40.04
69715;HTU21D;56981;53.532;49.398;2023-04-07T12:08:56;13.73;39.69
69715;HTU21D;56981;53.532;49.398;2023-04-07T12:11:22;13.74;39.31
69715;HTU21D;56981;53.532;49.398;2023-04-07T12:13:49;13.90;39.39
69715;HTU21D;56981;53.532;49.398;2023-04-07T12:16:16;13.82;39.70
69715;HTU21D;56981;53.532;49.398;2023-04-07T12:18:42;13.64;39.73
69715;HTU21D;56981;53.532;49.398;2023-04-07T12:21:09;13.48;40.54
69715;HTU21D;56981;53.532;49.398;2023-04-07T12:23:35;13.51;40.50
69715;HTU21D;56981;53.532;49.398;2023-04-07T12:26:01;13.61;40.65
69715;HTU21D;56981;53.532;49.398;2023-04-07T12:28:27;13.60;40.29
69715;HTU21D;56981;53.532;49.398;2023-04-07T12:30:54;13.64;40.70
69715;HTU21D;56981;53.532;49.398;2023-04-07T12:33:20;13.64;39.73
69715;HTU21D;56981;53.532;49.398;2023-04-07T12:35:46;13.50;39.86
69715;HTU21D;56981;53.532;49.398;2023-04-07T12:38:13;13.36;40.15
69715;HTU21D;56981;53.532;49.398;2023-04-07T12:40:39;13.23;40.62
69715;HTU21D;56981;53.532;49.398;2023-04-07T12:43:05;13.16;40.94
69715;HTU21D;56981;53.532;49.398;2023-04-07T12:45:31;13.17;41.17
69715;HTU21D;56981;53.532;49.398;2023-04-07T12:47:58;13.22;41.10
69715;HTU21D;56981;53.532;49.398;2023-04-07T12:50:24;13.32;40.97
69715;HTU21D;56981;53.532;49.398;2023-04-07T12:52:51;13.46;40.59
69715;HTU21D;56981;53.532;49.398;2023-04-07T12:55:19;13.51;39.56
69715;HTU21D;56981;53.532;49.398;2023-04-07T12:57:46;13.52;39.80
69715;HTU21D;56981;53.532;49.398;2023-04-07T13:00:13;13.44;40.37
69715;HTU21D;56981;53.532;49.398;2023-04-07T13:02:39;13.34;40.81
69715;HTU21D;56981;53.532;49.398;2023-04-07T13:05:06;13.31;39.97
69715;HTU21D;56981;53.532;49.398;2023-04-07T13:07:33;13.39;39.94
69715;HTU21D;56981;53.532;49.398;2023-04-07T13:10:01;13.34;40.37
69715;HTU21D;56981;53.532;49.398;2023-04-07T13:12:27;13.43;40.21
69715;HTU21D;56981;53.532;49.398;2023-04-07T13:14:53;13.52;39.83
69715;HTU21D;56981;53.532;49.398;2023-04-07T13:17:20;13.50;40.17
69715;HTU21D;56981;53.532;49.398;2023-04-07T13:19:48;13.41;40.73
69715;HTU21D;56981;53.532;49.398;2023-04-07T13:22:14;13.40;39.92
69715;HTU21D;56981;53.532;49.398;2023-04-07T13:24:41;13.26;39.94
69715;HTU21D;56981;53.532;49.398;2023-04-07T13:27:07;13.16;40.64
69715;HTU21D;56981;53.532;49.398;2023-04-07T13:29:33;13.04;40.99
69715;HTU21D;56981;53.532;49.398;2023-04-07T13:32:09;12.91;41.39
69715;HTU21D;56981;53.532;49.398;2023-04-07T13:34:38;12.79;42.12
69715;HTU21D;56981;53.532;49.398;2023-04-07T13:37:04;12.79;42.28
69715;HTU21D;56981;53.532;49.398;2023-04-07T13:39:31;12.79;41.74
69715;HTU21D;56981;53.532;49.398;2023-04-07T13:41:58;12.81;41.97
69715;HTU21D;56981;53.532;49.398;2023-04-07T13:44:27;12.75;41.34
69715;HTU21D;56981;53.532;49.398;2023-04-07T13:46:55;12.64;42.19
69715;HTU21D;56981;53.532;49.398;2023-04-07T13:49:21;12.55;42.71
69715;HTU21D;56981;53.532;49.398;2023-04-07T13:51:47;12.47;43.24
69715;HTU21D;56981;53.532;49.398;2023-04-07T13:54:15;12.42;43.61
69715;HTU21D;56981;53.532;49.398;2023-04-07T13:56:41;12.34;44.25
69715;HTU21D;56981;53.532;49.398;2023-04-07T13:59:07;12.29;44.80
69715;HTU21D;56981;53.532;49.398;2023-04-07T14:01:34;12.19;45.33
69715;HTU21D;56981;53.532;49.398;2023-04-07T14:04:01;12.08;45.55
69715;HTU21D;56981;53.532;49.398;2023-04-07T14:06:28;11.99;45.73
69715;HTU21D;56981;53.532;49.398;2023-04-07T14:08:54;11.91;45.83
69715;HTU21D;56981;53.532;49.398;2023-04-07T14:11:21;11.85;46.02
69715;HTU21D;56981;53.532;49.398;2023-04-07T14:13:53;11.75;46.46
69715;HTU21D;56981;53.532;49.398;2023-04-07T14:16:19;11.55;46.90
69715;HTU21D;56981;53.532;49.398;2023-04-07T14:18:45;11.46;47.07
69715;HTU21D;56981;53.532;49.398;2023-04-07T14:21:12;11.37;47.23
69715;HTU21D;56981;53.532;49.398;2023-04-07T14:23:38;11.28;47.82
69715;HTU21D;56981;53.532;49.398;2023-04-07T14:26:04;11.23;47.78
69715;HTU21D;56981;53.532;49.398;2023-04-07T14:28:30;11.19;47.70
69715;HTU21D;56981;53.532;49.398;2023-04-07T14:30:56;11.16;47.67
69715;HTU21D;56981;53.532;49.398;2023-04-07T14:33:23;11.14;47.85
69715;HTU21D;56981;53.532;49.398;2023-04-07T14:35:57;11.13;48.06
69715;HTU21D;56981;53.532;49.398;2023-04-07T14:38:23;11.09;48.11
69715;HTU21D;56981;53.532;49.398;2023-04-07T14:40:59;11.10;48.29
69715;HTU21D;56981;53.532;49.398;2023-04-07T14:43:28;11.05;48.15
69715;HTU21D;56981;53.532;49.398;2023-04-07T14:45:55;11.00;48.12
69715;HTU21D;56981;53.532;49.398;2023-04-07T14:48:22;10.94;48.42
69715;HTU21D;56981;53.532;49.398;2023-04-07T14:50:49;10.87;48.79
69715;HTU21D;56981;53.532;49.398;2023-04-07T14:53:15;10.83;49.26
69715;HTU21D;56981;53.532;49.398;2023-04-07T14:55:43;10.73;49.44
69715;HTU21D;56981;53.532;49.398;2023-04-07T14:58:12;10.68;49.71
69715;HTU21D;56981;53.532;49.398;2023-04-07T15:00:38;10.65;49.89
69715;HTU21D;56981;53.532;49.398;2023-04-07T15:03:04;10.62;50.18
69715;HTU21D;56981;53.532;49.398;2023-04-07T15:05:33;10.58;50.34
69715;HTU21D;56981;53.532;49.398;2023-04-07T15:08:02;10.52;50.81
69715;HTU21D;56981;53.532;49.398;2023-04-07T15:10:28;10.48;50.75
69715;HTU21D;56981;53.532;49.398;2023-04-07T15:12:54;10.40;51.17
69715;HTU21D;56981;53.532;49.398;2023-04-07T15:15:20;10.31;52.39
69715;HTU21D;56981;53.532;49.398;2023-04-07T15:17:47;10.23;53.01
69715;HTU21D;56981;53.532;49.398;2023-04-07T15:20:15;10.15;53.48
69715;HTU21D;56981;53.532;49.398;2023-04-07T15:22:41;10.05;54.52
69715;HTU21D;56981;53.532;49.398;2023-04-07T15:25:08;9.94;55.68